createdAt,value
2018-09-14T00:01:50.017Z,11.07
2018-09-14T00:04:19.373Z,11.02
2018-09-14T00:06:48.718Z,11.00
2018-09-14T00:09:18.054Z,10.95
2018-09-14T00:11:47.397Z,10.94
2018-09-14T00:14:16.754Z,10.92
2018-09-14T00:16:46.154Z,10.92
2018-09-14T00:19:15.502Z,10.90
2018-09-14T00:21:44.861Z,10.91
2018-09-14T00:24:14.205Z,10.90
2018-09-14T00:26:43.592Z,10.87
2018-09-14T00:29:12.927Z,10.85
2018-09-14T00:31:42.277Z,10.84
2018-09-14T00:34:11.619Z,10.83
2018-09-14T00:36:40.959Z,10.74
2018-09-14T00:39:11.237Z,10.81
2018-09-14T00:41:40.553Z,10.81
2018-09-14T00:44:09.937Z,10.78
2018-09-14T00:46:40.723Z,10.77
2018-09-14T00:49:10.054Z,10.75
2018-09-14T00:51:39.386Z,10.73
2018-09-14T00:54:08.820Z,10.70
2018-09-14T00:56:38.136Z,10.68
2018-09-14T00:59:07.489Z,10.66
2018-09-14T01:01:36.845Z,10.63
2018-09-14T01:04:06.197Z,10.61
2018-09-14T01:06:35.585Z,10.61
2018-09-14T01:09:13.384Z,10.59
2018-09-14T01:11:42.709Z,10.55
2018-09-14T01:14:12.069Z,10.51
2018-09-14T01:16:41.538Z,10.47
2018-09-14T01:19:11.042Z,10.43
2018-09-14T01:21:40.481Z,10.41
2018-09-14T01:24:09.864Z,10.38
2018-09-14T01:26:39.238Z,10.06
2018-09-14T01:29:08.581Z,10.36
2018-09-14T01:31:37.922Z,10.34
2018-09-14T01:34:07.326Z,10.33
2018-09-14T01:36:36.665Z,10.31
2018-09-14T01:39:10.901Z,10.28
2018-09-14T01:41:40.614Z,10.27
2018-09-14T01:44:10.342Z,10.24
2018-09-14T01:46:39.754Z,10.21
2018-09-14T01:49:09.086Z,10.18
2018-09-14T01:51:38.463Z,10.16
2018-09-14T01:54:13.836Z,10.14
2018-09-14T01:56:43.615Z,10.12
2018-09-14T01:59:13.041Z,10.10
2018-09-14T02:01:42.445Z,10.07
2018-09-14T02:04:11.964Z,10.06
2018-09-14T02:06:41.526Z,10.06
2018-09-14T02:09:11.738Z,10.03
2018-09-14T02:11:41.672Z,10.03
2018-09-14T02:14:11.045Z,10.02
2018-09-14T02:16:40.479Z,10.04
2018-09-14T02:19:10.156Z,10.02
2018-09-14T02:21:39.577Z,10.03
2018-09-14T02:24:09.013Z,10.05
2018-09-14T02:26:38.409Z,10.07
2018-09-14T02:29:07.797Z,10.05
2018-09-14T02:31:37.182Z,10.04
2018-09-14T02:34:06.696Z,10.01
2018-09-14T02:36:36.182Z,10.00
2018-09-14T02:39:08.207Z,10.00
2018-09-14T02:41:37.634Z,9.98
2018-09-14T02:44:07.175Z,9.96
2018-09-14T02:46:36.765Z,9.95
2018-09-14T02:49:06.906Z,9.93
2018-09-14T02:51:36.269Z,9.91
2018-09-14T02:54:05.953Z,9.89
2018-09-14T02:56:35.373Z,9.85
2018-09-14T02:59:06.140Z,9.82
2018-09-14T03:01:35.712Z,9.79
2018-09-14T03:04:06.417Z,9.78
2018-09-14T03:06:35.847Z,9.76
2018-09-14T03:09:09.005Z,9.74
2018-09-14T03:11:38.631Z,9.72
2018-09-14T03:14:08.150Z,9.71
2018-09-14T03:16:37.616Z,9.69
2018-09-14T03:19:07.222Z,9.77
2018-09-14T03:21:36.654Z,9.72
2018-09-14T03:24:06.177Z,9.70
2018-09-14T03:26:35.602Z,9.67
2018-09-14T03:29:06.364Z,9.65
2018-09-14T03:31:35.835Z,9.63
2018-09-14T03:34:06.690Z,9.63
2018-09-14T03:36:36.157Z,9.63
2018-09-14T03:39:09.094Z,9.62
2018-09-14T03:41:38.442Z,9.60
2018-09-14T03:44:07.892Z,9.60
2018-09-14T03:46:37.220Z,9.57
2018-09-14T03:49:06.573Z,9.56
2018-09-14T03:51:35.939Z,9.55
2018-09-14T03:54:06.262Z,9.55
2018-09-14T03:56:35.637Z,9.52
2018-09-14T03:59:06.314Z,9.50
2018-09-14T04:01:35.655Z,9.48
2018-09-14T04:04:05.009Z,9.46
2018-09-14T04:06:34.530Z,9.45
2018-09-14T04:09:03.962Z,9.45
2018-09-14T04:11:33.277Z,9.46
2018-09-14T04:14:02.722Z,9.46
2018-09-14T04:16:32.051Z,9.48
2018-09-14T04:19:03.092Z,9.51
2018-09-14T04:21:33.672Z,9.53
2018-09-14T04:24:03.301Z,9.54
2018-09-14T04:26:32.660Z,9.56
2018-09-14T04:29:02.008Z,9.60
2018-09-14T04:31:31.355Z,9.62
2018-09-14T04:34:00.704Z,9.64
2018-09-14T04:36:30.066Z,9.66
2018-09-14T04:38:59.392Z,9.67
2018-09-14T04:41:28.730Z,9.68
2018-09-14T04:43:58.094Z,9.69
2018-09-14T04:46:27.456Z,9.69
2018-09-14T04:48:56.821Z,9.69
2018-09-14T04:51:26.312Z,9.67
2018-09-14T04:53:55.565Z,9.67
2018-09-14T04:56:24.914Z,9.67
2018-09-14T04:58:54.271Z,9.65
2018-09-14T05:01:23.670Z,9.64
2018-09-14T05:03:53.054Z,9.64
2018-09-14T05:06:22.406Z,9.64
2018-09-14T05:08:51.769Z,9.64
2018-09-14T05:11:21.119Z,9.66
2018-09-14T05:13:50.510Z,9.65
2018-09-14T05:16:19.843Z,9.66
2018-09-14T05:18:49.213Z,9.67
2018-09-14T05:21:18.589Z,9.70
2018-09-14T05:23:47.962Z,9.73
2018-09-14T05:26:17.262Z,9.76
2018-09-14T05:28:48.582Z,9.79
2018-09-14T05:31:17.935Z,9.82
2018-09-14T05:33:49.997Z,9.85
2018-09-14T05:36:19.335Z,9.90
2018-09-14T05:38:48.706Z,9.97
2018-09-14T05:41:18.085Z,10.02
2018-09-14T05:43:47.530Z,10.06
2018-09-14T05:46:16.887Z,10.11
2018-09-14T05:48:46.415Z,10.16
2018-09-14T05:51:15.769Z,10.20
2018-09-14T05:53:45.128Z,10.27
2018-09-14T05:56:14.514Z,10.33
2018-09-14T05:58:43.864Z,10.38
2018-09-14T06:01:13.278Z,10.44
2018-09-14T06:03:42.641Z,10.52
2018-09-14T06:06:11.997Z,10.61
2018-09-14T06:08:41.301Z,10.72
2018-09-14T06:11:41.395Z,10.81
2018-09-14T06:14:10.737Z,10.94
2018-09-14T06:16:40.429Z,11.06
2018-09-14T06:19:09.822Z,11.17
2018-09-14T06:21:39.125Z,11.31
2018-09-14T06:24:08.486Z,11.44
2018-09-14T06:26:37.818Z,11.55
2018-09-14T06:29:07.212Z,11.91
2018-09-14T06:31:36.526Z,12.00
2018-09-14T06:34:06.134Z,12.09
2018-09-14T06:36:35.464Z,12.19
2018-09-14T06:39:07.486Z,12.31
2018-09-14T06:41:36.796Z,12.42
2018-09-14T06:44:06.410Z,12.54
2018-09-14T06:46:35.750Z,12.64
2018-09-14T06:49:06.726Z,12.75
2018-09-14T06:51:37.537Z,12.84
2018-09-14T06:54:07.132Z,12.91
2018-09-14T06:56:36.407Z,12.99
2018-09-14T06:59:06.494Z,13.05
2018-09-14T07:01:35.805Z,13.14
2018-09-14T07:04:06.385Z,13.20
2018-09-14T07:06:35.763Z,13.27
2018-09-14T07:09:08.397Z,13.34
2018-09-14T07:11:37.802Z,13.46
2018-09-14T07:14:07.169Z,13.58
2018-09-14T07:16:36.497Z,13.74
2018-09-14T07:19:06.245Z,13.89
2018-09-14T07:21:35.554Z,14.04
2018-09-14T07:24:04.861Z,14.18
2018-09-14T07:26:34.293Z,14.34
2018-09-14T07:29:03.690Z,14.51
2018-09-14T07:31:33.018Z,14.68
2018-09-14T07:34:02.329Z,14.81
2018-09-14T07:36:31.752Z,14.99
2018-09-14T07:39:01.016Z,15.16
2018-09-14T07:41:30.544Z,15.36
2018-09-14T07:43:59.846Z,15.50
2018-09-14T07:46:29.195Z,15.66
2018-09-14T07:48:58.562Z,15.79
2018-09-14T07:51:27.975Z,15.93
2018-09-14T07:53:57.404Z,16.05
2018-09-14T07:56:27.298Z,16.21
2018-09-14T07:58:58.243Z,16.40
2018-09-14T08:01:28.073Z,16.61
2018-09-14T08:03:57.462Z,16.90
2018-09-14T08:06:26.765Z,17.20
2018-09-14T08:08:56.087Z,17.51
2018-09-14T08:11:25.445Z,17.86
2018-09-14T08:13:55.472Z,18.11
2018-09-14T08:16:24.817Z,18.32
2018-09-14T08:18:54.143Z,18.49
2018-09-14T08:21:23.556Z,18.64
2018-09-14T08:23:53.022Z,18.78
2018-09-14T08:26:22.358Z,18.82
2018-09-14T08:28:51.926Z,18.81
2018-09-14T08:31:21.360Z,18.75
2018-09-14T08:33:50.702Z,18.72
2018-09-14T08:36:20.370Z,18.69
2018-09-14T08:38:50.727Z,18.68
2018-09-14T08:41:20.286Z,18.70
2018-09-14T08:43:49.890Z,18.67
2018-09-14T08:46:19.230Z,18.67
2018-09-14T08:48:48.590Z,18.67
2018-09-14T08:51:17.984Z,18.79
2018-09-14T08:53:47.409Z,18.97
2018-09-14T08:56:16.717Z,19.15
2018-09-14T09:01:21.865Z,19.43
2018-09-14T09:03:51.236Z,19.51
2018-09-14T09:06:20.525Z,19.59
2018-09-14T09:08:49.840Z,19.65
2018-09-14T09:11:19.171Z,19.73
2018-09-14T09:13:48.461Z,19.75
2018-09-14T09:16:17.757Z,19.84
2018-09-14T09:18:47.106Z,19.88
2018-09-14T09:21:16.408Z,19.99
2018-09-14T09:23:45.738Z,20.20
2018-09-14T09:26:15.083Z,20.32
2018-09-14T09:28:44.358Z,20.48
2018-09-14T09:31:13.640Z,20.68
2018-09-14T09:33:42.935Z,20.78
2018-09-14T09:36:12.249Z,20.73
2018-09-14T09:38:41.543Z,20.66
2018-09-14T09:41:10.847Z,20.69
2018-09-14T09:43:40.294Z,20.71
2018-09-14T09:46:09.533Z,20.74
2018-09-14T09:48:38.866Z,20.85
2018-09-14T09:51:08.254Z,20.99
2018-09-14T09:53:37.616Z,21.26
2018-09-14T09:56:07.035Z,21.34
2018-09-14T09:58:36.376Z,21.29
2018-09-14T10:01:11.809Z,21.25
2018-09-14T10:03:46.401Z,21.18
2018-09-14T10:06:20.878Z,21.15
2018-09-14T10:08:50.216Z,21.24
2018-09-14T10:11:19.542Z,21.36
2018-09-14T10:13:48.991Z,21.68
2018-09-14T10:16:18.341Z,21.59
2018-09-14T10:18:47.666Z,21.61
2018-09-14T10:21:17.134Z,21.62
2018-09-14T10:23:46.439Z,21.54
2018-09-14T10:26:15.767Z,21.58
2018-09-14T10:28:45.076Z,21.75
2018-09-14T10:31:14.388Z,21.95
2018-09-14T10:33:43.730Z,22.03
2018-09-14T10:36:13.057Z,21.92
2018-09-14T10:38:42.377Z,21.83
2018-09-14T10:41:11.714Z,21.90
2018-09-14T10:43:41.050Z,21.90
2018-09-14T10:46:10.397Z,21.86
2018-09-14T10:48:39.884Z,21.92
2018-09-14T10:51:09.086Z,22.03
2018-09-14T10:53:38.418Z,22.01
2018-09-14T10:56:07.824Z,22.17
2018-09-14T10:58:43.646Z,22.43
2018-09-14T11:01:15.213Z,22.76
2018-09-14T11:03:44.790Z,23.15
2018-09-14T11:06:15.013Z,23.42
2018-09-14T11:08:44.374Z,23.50
2018-09-14T11:11:13.719Z,23.41
2018-09-14T11:13:43.071Z,23.42
2018-09-14T11:16:12.396Z,23.51
2018-09-14T11:18:41.784Z,23.44
2018-09-14T11:21:11.085Z,23.44
2018-09-14T11:23:40.407Z,23.44
2018-09-14T11:26:09.765Z,23.41
2018-09-14T11:28:39.111Z,23.42
2018-09-14T11:31:08.456Z,23.40
2018-09-14T11:33:37.790Z,23.45
2018-09-14T11:36:07.405Z,23.77
2018-09-14T11:38:36.897Z,24.04
2018-09-14T11:41:06.394Z,24.45
2018-09-14T11:43:35.720Z,24.85
2018-09-14T11:51:04.410Z,24.47
2018-09-14T11:53:33.776Z,24.44
2018-09-14T11:56:03.081Z,24.35
2018-09-14T11:58:32.421Z,24.42
2018-09-14T12:01:01.751Z,24.60
2018-09-14T12:03:31.070Z,24.72
2018-09-14T12:06:00.421Z,24.86
2018-09-14T12:08:29.745Z,25.05
2018-09-14T12:10:59.076Z,25.23
2018-09-14T12:13:28.466Z,25.53
2018-09-14T12:15:57.771Z,25.76
2018-09-14T12:18:27.089Z,25.87
2018-09-14T12:20:56.402Z,25.77
2018-09-14T12:23:25.717Z,25.88
2018-09-14T12:25:55.073Z,26.30
2018-09-14T12:28:24.411Z,26.46
2018-09-14T12:30:53.738Z,26.99
2018-09-14T12:33:23.060Z,26.96
2018-09-14T12:35:52.366Z,26.91
2018-09-14T12:38:21.687Z,26.89
2018-09-14T12:40:51.027Z,26.97
2018-09-14T12:43:20.349Z,27.38
2018-09-14T12:45:49.825Z,27.74
2018-09-14T12:48:19.186Z,28.21
2018-09-14T12:50:48.533Z,28.29
2018-09-14T12:53:17.832Z,28.36
2018-09-14T12:55:47.125Z,28.52
2018-09-14T12:58:16.461Z,28.62
2018-09-14T13:00:45.897Z,28.59
2018-09-14T13:03:15.293Z,28.76
2018-09-14T13:05:44.640Z,28.66
2018-09-14T13:08:13.958Z,28.47
2018-09-14T13:10:43.268Z,29.06
2018-09-14T13:13:12.612Z,28.81
2018-09-14T13:15:44.357Z,28.33
2018-09-14T13:18:13.755Z,27.77
2018-09-14T13:20:43.091Z,27.70
2018-09-14T13:23:12.493Z,28.12
2018-09-14T13:25:41.913Z,28.14
2018-09-14T13:28:11.216Z,27.92
2018-09-14T13:30:40.534Z,27.32
2018-09-14T13:33:09.854Z,26.75
2018-09-14T13:35:39.184Z,26.31
2018-09-14T13:38:08.538Z,25.94
2018-09-14T13:40:37.865Z,25.63
2018-09-14T13:43:07.199Z,25.24
2018-09-14T13:45:38.145Z,25.09
2018-09-14T13:48:07.502Z,25.21
2018-09-14T13:50:36.871Z,25.48
2018-09-14T13:53:06.199Z,25.96
2018-09-14T13:55:35.538Z,26.64
2018-09-14T13:58:06.249Z,26.89
2018-09-14T14:00:35.562Z,26.49
2018-09-14T14:03:06.971Z,25.92
2018-09-14T14:05:36.283Z,25.44
2018-09-14T14:08:06.625Z,25.39
2018-09-14T14:10:35.974Z,26.20
2018-09-14T14:13:06.286Z,26.62
2018-09-14T14:15:35.598Z,26.94
2018-09-14T14:18:06.197Z,27.10
2018-09-14T14:20:35.753Z,26.53
2018-09-14T14:23:05.446Z,26.49
2018-09-14T14:25:34.765Z,26.98
2018-09-14T14:28:04.084Z,26.66
2018-09-14T14:30:33.447Z,25.93
2018-09-14T14:33:02.816Z,25.35
2018-09-14T14:35:32.146Z,25.44
2018-09-14T14:38:01.465Z,25.45
2018-09-14T14:40:30.813Z,25.59
2018-09-14T14:43:04.271Z,25.58
2018-09-14T14:45:33.616Z,25.82
2018-09-14T14:48:02.951Z,25.85
2018-09-14T14:50:32.281Z,25.38
2018-09-14T14:53:01.594Z,24.80
2018-09-14T14:55:30.946Z,24.38
2018-09-14T14:58:00.289Z,24.45
2018-09-14T15:00:29.641Z,24.50
2018-09-14T15:02:58.979Z,24.58
2018-09-14T15:05:28.319Z,24.26
2018-09-14T15:08:00.104Z,23.97
2018-09-14T15:10:29.633Z,23.63
2018-09-14T15:12:58.979Z,23.25
2018-09-14T15:15:28.510Z,22.96
2018-09-14T15:17:58.159Z,22.74
2018-09-14T15:20:27.979Z,22.51
2018-09-14T15:22:57.649Z,22.32
2018-09-14T15:25:27.172Z,22.08
2018-09-14T15:27:56.755Z,21.87
2018-09-14T15:30:26.260Z,21.68
2018-09-14T15:32:55.873Z,21.53
2018-09-14T15:35:25.474Z,21.43
2018-09-14T15:37:54.846Z,21.34
2018-09-14T15:40:24.184Z,21.22
2018-09-14T15:42:53.500Z,21.27
2018-09-14T15:45:22.817Z,21.21
2018-09-14T15:47:52.121Z,21.14
2018-09-14T15:50:21.445Z,21.03
2018-09-14T15:52:50.765Z,20.93
2018-09-14T15:55:20.479Z,20.81
2018-09-14T16:00:26.349Z,20.68
2018-09-14T16:02:55.658Z,20.66
2018-09-14T16:05:25.005Z,20.61
2018-09-14T16:07:54.329Z,20.48
2018-09-14T16:10:23.630Z,20.35
2018-09-14T16:12:52.972Z,20.24
2018-09-14T16:15:22.273Z,20.15
2018-09-14T16:17:51.616Z,20.01
2018-09-14T16:20:20.926Z,19.89
2018-09-14T16:22:50.249Z,19.77
2018-09-14T16:25:19.554Z,19.66
2018-09-14T16:27:48.881Z,19.59
2018-09-14T16:30:18.270Z,19.57
2018-09-14T16:32:47.582Z,19.54
2018-09-14T16:35:16.919Z,19.51
2018-09-14T16:37:46.303Z,19.44
2018-09-14T16:40:15.646Z,19.36
2018-09-14T16:42:45.145Z,19.31
2018-09-14T16:45:14.505Z,19.26
2018-09-14T16:47:43.865Z,19.21
2018-09-14T16:50:13.193Z,19.15
2018-09-14T16:52:42.538Z,19.11
2018-09-14T16:55:11.893Z,19.08
2018-09-14T16:57:41.224Z,19.05
2018-09-14T17:00:10.567Z,19.01
2018-09-14T17:02:40.229Z,18.95
2018-09-14T17:05:09.537Z,18.94
2018-09-14T17:07:38.944Z,18.94
2018-09-14T17:10:09.517Z,18.91
2018-09-14T17:12:38.833Z,18.89
2018-09-14T17:15:08.725Z,18.87
2018-09-14T17:17:39.222Z,18.83
2018-09-14T17:20:08.561Z,18.81
2018-09-14T17:22:37.934Z,18.79
2018-09-14T17:25:07.261Z,18.75
2018-09-14T17:27:36.696Z,18.71
2018-09-14T17:30:06.538Z,18.70
2018-09-14T17:32:35.839Z,18.69
2018-09-14T17:35:06.401Z,18.69
2018-09-14T17:37:35.736Z,18.70
2018-09-14T17:40:06.019Z,18.70
2018-09-14T17:42:35.369Z,18.75
2018-09-14T17:50:08.896Z,18.54
2018-09-14T17:52:38.324Z,18.52
2018-09-14T17:55:07.664Z,18.47
2018-09-14T17:57:37.094Z,18.42
2018-09-14T18:00:06.786Z,18.38
2018-09-14T18:02:36.326Z,18.30
2018-09-14T18:05:07.341Z,18.27
2018-09-14T18:07:36.720Z,18.23
2018-09-14T18:10:06.258Z,18.21
2018-09-14T18:12:35.742Z,18.18
2018-09-14T18:15:06.586Z,18.18
2018-09-14T18:17:36.062Z,18.15
2018-09-14T18:20:05.403Z,18.14
2018-09-14T18:22:34.803Z,18.12
2018-09-14T18:25:04.235Z,18.11
2018-09-14T18:27:33.756Z,18.06
2018-09-14T18:30:03.198Z,18.02
2018-09-14T18:32:32.591Z,17.98
2018-09-14T18:35:02.302Z,17.96
2018-09-14T18:37:36.834Z,17.92
2018-09-14T18:40:20.836Z,17.89
2018-09-14T18:42:50.413Z,17.84
2018-09-14T18:45:19.844Z,17.80
2018-09-14T18:47:49.262Z,17.78
2018-09-14T18:50:18.681Z,17.78
2018-09-14T18:52:48.189Z,17.76
2018-09-14T18:55:17.553Z,17.73
2018-09-14T18:57:46.980Z,17.70
2018-09-14T19:00:16.512Z,17.66
2018-09-14T19:02:45.910Z,17.62
2018-09-14T19:05:15.444Z,17.58
2018-09-14T19:07:44.898Z,17.51
2018-09-14T19:10:15.295Z,17.45
2018-09-14T19:12:50.148Z,17.38
2018-09-14T19:15:19.544Z,17.29
2018-09-14T19:17:48.924Z,17.23
2018-09-14T19:20:26.205Z,17.17
2018-09-14T19:22:55.558Z,17.11
2018-09-14T19:25:25.035Z,17.02
2018-09-14T19:27:54.478Z,16.96
2018-09-14T19:30:24.236Z,16.88
2018-09-14T19:32:53.626Z,16.83
2018-09-14T19:35:23.145Z,16.77
2018-09-14T19:37:52.602Z,16.71
2018-09-14T19:40:22.041Z,16.65
2018-09-14T19:42:51.447Z,16.58
2018-09-14T19:45:20.829Z,16.54
2018-09-14T19:47:50.833Z,16.52
2018-09-14T19:50:20.268Z,16.53
2018-09-14T19:52:49.744Z,16.54
2018-09-14T19:55:19.465Z,16.54
2018-09-14T19:57:49.472Z,16.52
2018-09-14T20:00:18.967Z,16.48
2018-09-14T20:02:48.319Z,16.53
2018-09-14T20:05:17.708Z,16.47
2018-09-14T20:07:47.271Z,16.43
2018-09-14T20:10:16.939Z,16.36
2018-09-14T20:12:46.366Z,16.31
2018-09-14T20:15:15.747Z,16.25
2018-09-14T20:17:45.151Z,16.19
2018-09-14T20:20:14.530Z,16.12
2018-09-14T20:22:43.929Z,16.04
2018-09-14T20:25:13.313Z,15.97
2018-09-14T20:27:42.771Z,15.90
2018-09-14T20:30:12.275Z,15.98
2018-09-14T20:32:41.769Z,15.94
2018-09-14T20:35:11.809Z,15.89
2018-09-14T20:37:41.549Z,15.83
2018-09-14T20:40:12.207Z,15.78
2018-09-14T20:42:42.288Z,15.82
2018-09-14T20:45:11.880Z,15.88
2018-09-14T20:47:42.043Z,15.93
2018-09-14T20:50:11.503Z,15.96
2018-09-14T20:52:41.003Z,15.99
2018-09-14T20:55:10.481Z,16.02
2018-09-14T20:57:40.357Z,16.04
2018-09-14T21:00:13.227Z,16.01
2018-09-14T21:02:42.692Z,15.97
2018-09-14T21:05:12.179Z,15.91
2018-09-14T21:07:41.634Z,15.86
2018-09-14T21:10:11.035Z,15.78
2018-09-14T21:12:40.430Z,15.75
2018-09-14T21:15:09.993Z,15.72
2018-09-14T21:17:40.379Z,15.68
2018-09-14T21:20:09.826Z,15.64
2018-09-14T21:22:39.314Z,15.58
2018-09-14T21:25:08.715Z,15.52
2018-09-14T21:27:38.150Z,15.45
2018-09-14T21:30:08.280Z,15.37
2018-09-14T21:32:38.438Z,15.28
2018-09-14T21:35:07.976Z,15.20
2018-09-14T21:37:37.442Z,15.13
2018-09-14T21:40:07.054Z,15.07
2018-09-14T21:42:36.475Z,15.00
2018-09-14T21:45:06.206Z,14.94
2018-09-14T21:47:35.536Z,14.89
2018-09-14T21:50:06.446Z,14.82
2018-09-14T21:52:35.829Z,14.75
2018-09-14T21:55:06.373Z,14.72
2018-09-14T21:57:35.788Z,14.68
2018-09-14T22:00:13.003Z,14.65
2018-09-14T22:02:42.410Z,14.59
2018-09-14T22:05:12.029Z,14.55
2018-09-14T22:07:41.406Z,14.53
2018-09-14T22:10:10.842Z,14.51
2018-09-14T22:12:40.205Z,14.49
2018-09-14T22:15:10.458Z,14.46
2018-09-14T22:17:39.843Z,14.46
2018-09-14T22:20:09.218Z,14.43
2018-09-14T22:22:38.631Z,14.41
2018-09-14T22:25:08.215Z,14.41
2018-09-14T22:27:37.600Z,14.40
2018-09-14T22:30:07.842Z,14.38
2018-09-14T22:32:37.274Z,14.35
2018-09-14T22:35:07.820Z,14.32
2018-09-14T22:37:37.325Z,14.31
2018-09-14T22:40:06.697Z,14.28
2018-09-14T22:42:36.286Z,14.26
2018-09-14T22:45:06.521Z,14.23
2018-09-14T22:47:36.854Z,14.22
2018-09-14T22:50:06.921Z,14.18
2018-09-14T22:52:36.286Z,14.16
2018-09-14T22:55:06.238Z,14.16
2018-09-14T22:57:35.570Z,14.17
2018-09-14T23:00:06.489Z,14.18
2018-09-14T23:02:35.844Z,14.21
2018-09-14T23:05:05.423Z,14.22
2018-09-14T23:07:35.063Z,14.22
2018-09-14T23:10:12.965Z,14.21
2018-09-14T23:12:49.910Z,14.18
2018-09-14T23:15:27.542Z,14.16
2018-09-14T23:18:05.336Z,14.16
2018-09-14T23:20:44.337Z,14.18
2018-09-14T23:23:22.598Z,14.22
2018-09-14T23:26:06.012Z,14.25
2018-09-14T23:28:43.816Z,14.29
2018-09-14T23:31:22.745Z,14.31
2018-09-14T23:34:00.201Z,14.35
2018-09-14T23:36:37.462Z,14.42
2018-09-14T23:39:17.473Z,14.47
2018-09-14T23:41:53.009Z,14.50
2018-09-14T23:44:31.175Z,14.56
2018-09-14T23:47:08.080Z,14.60
2018-09-14T23:49:44.885Z,14.62
2018-09-14T23:52:21.463Z,14.62
2018-09-14T23:55:01.141Z,14.62
2018-09-14T23:57:38.758Z,14.54
